Time;durP1;ratioP1;P1;durP2;ratioP2;P2;SDS_P1;SDS_P2;PMS_P1;PMS_P2;Temp;Humidity;BMP_temperature;BMP_pressure;BME280_temperature;BME280_humidity;BME280_pressure;Samples;Min_cycle;Max_cycle;Signal;HPM_P1;HPM_P2
2022/12/02 00:01:59;;;;;;;22.00;13.90;;;;;;;0.88;100.00;96701.94;5031140;28;20950;-73
2022/12/02 00:04:30;;;;;;;22.27;14.13;;;;;;;0.87;100.00;96694.38;5015551;28;20427;-73
2022/12/02 00:06:58;;;;;;;24.43;14.43;;;;;;;0.81;100.00;96691.00;5038964;28;20431;-73
2022/12/02 00:09:31;;;;;;;25.67;17.20;;;;;;;0.63;100.00;96651.63;5013399;28;20924;-73
2022/12/02 00:12:00;;;;;;;30.53;17.40;;;;;;;0.84;100.00;96690.47;5013701;28;20492;-73
2022/12/02 00:14:33;;;;;;;23.13;15.80;;;;;;;0.92;100.00;96683.97;5049461;28;20972;-73
2022/12/02 00:16:59;;;;;;;25.77;18.50;;;;;;;0.75;100.00;96665.19;5037720;28;20437;-73
2022/12/02 00:19:26;;;;;;;27.70;16.80;;;;;;;0.73;100.00;96675.84;5029257;28;20458;-73
2022/12/02 00:21:53;;;;;;;26.43;15.53;;;;;;;0.47;100.00;96641.16;5013237;28;20442;-73
2022/12/02 00:24:19;;;;;;;22.13;15.67;;;;;;;0.61;100.00;96638.88;5009843;28;20467;-73
2022/12/02 00:26:46;;;;;;;25.70;14.77;;;;;;;0.51;100.00;96642.19;5030980;28;20521;-73
2022/12/02 00:29:14;;;;;;;25.00;15.20;;;;;;;0.69;100.00;96654.00;5034741;28;20446;-73
2022/12/02 00:31:41;;;;;;;22.77;14.20;;;;;;;0.56;100.00;96633.66;5032753;28;20449;-73
2022/12/02 00:34:07;;;;;;;21.17;13.50;;;;;;;0.70;100.00;96652.97;5052845;28;20496;-73
2022/12/02 00:36:34;;;;;;;18.37;14.50;;;;;;;0.50;100.00;96626.84;5038596;28;20462;-73
2022/12/02 00:39:02;;;;;;;18.30;13.20;;;;;;;0.52;100.00;96646.38;5029564;28;20542;-73
2022/12/02 00:41:30;;;;;;;21.57;14.50;;;;;;;0.62;100.00;96640.44;5029562;28;20453;-73
2022/12/02 00:46:42;;;;;;;22.10;15.00;;;;;;;0.51;100.00;96629.19;5032038;28;20488;-73
2022/12/02 00:49:11;;;;;;;27.10;15.60;;;;;;;0.68;100.00;96657.63;5039856;28;20448;-73
2022/12/02 00:51:40;;;;;;;23.37;14.53;;;;;;;0.72;100.00;96656.09;5032601;28;20728;-73
2022/12/02 00:54:08;;;;;;;23.90;14.20;;;;;;;0.69;100.00;96658.41;5049096;28;20460;-73
2022/12/02 00:56:35;;;;;;;23.27;13.50;;;;;;;0.66;100.00;96657.09;5049039;28;20449;-73
2022/12/02 00:59:02;;;;;;;26.90;14.97;;;;;;;0.68;100.00;96657.63;5049115;28;20897;-74
2022/12/02 01:01:29;;;;;;;22.33;13.93;;;;;;;0.63;100.00;96649.78;5031062;28;20541;-74
2022/12/02 01:03:56;;;;;;;19.67;13.80;;;;;;;0.36;100.00;96618.72;5029064;28;20433;-74
2022/12/02 01:06:23;;;;;;;19.97;12.70;;;;;;;0.53;100.00;96639.34;5033659;28;20436;-74
2022/12/02 01:08:50;;;;;;;24.33;14.73;;;;;;;0.17;100.00;96582.00;5037465;28;20434;-74
2022/12/02 01:11:17;;;;;;;23.20;14.20;;;;;;;0.34;100.00;96612.22;5028973;28;20457;-74
2022/12/02 01:13:44;;;;;;;22.20;13.97;;;;;;;0.40;100.00;96612.00;5029167;28;20808;-74
2022/12/02 01:16:12;;;;;;;26.70;17.00;;;;;;;0.26;100.00;96605.69;5029104;28;20528;-74
2022/12/02 01:18:41;;;;;;;20.70;13.80;;;;;;;0.32;100.00;96609.88;5030793;28;20475;-74
2022/12/02 01:21:08;;;;;;;24.47;13.83;;;;;;;0.36;100.00;96613.53;5032417;28;20835;-74
2022/12/02 01:23:35;;;;;;;21.60;13.53;;;;;;;0.43;100.00;96624.50;5033877;28;20632;-74
2022/12/02 01:26:02;;;;;;;18.97;12.13;;;;;;;0.32;100.00;96598.69;5035713;28;20460;-74
2022/12/02 01:28:28;;;;;;;20.97;14.03;;;;;;;0.45;100.00;96632.81;5052303;28;20440;-74
2022/12/02 01:30:55;;;;;;;26.40;14.83;;;;;;;0.39;100.00;96623.41;5040496;28;20458;-74
2022/12/02 01:33:22;;;;;;;24.87;14.10;;;;;;;0.03;100.00;96565.28;5033679;28;20427;-74
2022/12/02 01:35:49;;;;;;;24.20;13.13;;;;;;;0.12;100.00;96597.56;5032199;28;20473;-74
2022/12/02 01:38:15;;;;;;;21.67;13.73;;;;;;;0.12;100.00;96592.34;5032159;28;20426;-74
2022/12/02 01:40:42;;;;;;;20.87;13.37;;;;;;;0.45;100.00;96647.66;5032206;28;20899;-74
2022/12/02 01:43:09;;;;;;;25.60;13.33;;;;;;;0.32;100.00;96609.88;5033377;28;20432;-74
2022/12/02 01:45:36;;;;;;;22.70;14.53;;;;;;;0.15;100.00;96578.09;5039139;28;20517;-74
2022/12/02 01:48:03;;;;;;;19.17;11.67;;;;;;;0.53;100.00;96634.91;5038241;28;20427;-74
2022/12/02 01:50:31;;;;;;;25.60;14.37;;;;;;;0.51;100.00;96631.00;5031921;28;20544;-74
2022/12/02 01:52:58;;;;;;;26.40;15.10;;;;;;;0.27;100.00;96599.47;5031801;28;20442;-74
2022/12/02 01:55:27;;;;;;;21.30;13.70;;;;;;;0.51;100.00;96631.00;5033133;28;20466;-74
2022/12/02 01:57:57;;;;;;;26.33;16.07;;;;;;;0.29;100.00;96615.59;5015441;28;20470;-74
2022/12/02 02:00:24;;;;;;;28.73;15.30;;;;;;;0.29;100.00;96626.00;5031807;28;20462;-74
2022/12/02 02:02:51;;;;;;;26.57;14.37;;;;;;;0.26;100.00;96611.66;5031685;28;20499;-74
2022/12/02 02:05:22;;;;;;;24.97;15.43;;;;;;;0.33;100.00;96626.25;5015332;28;20812;-74
2022/12/02 02:07:53;;;;;;;22.70;14.20;;;;;;;0.33;100.00;96624.44;5031666;28;20876;-74
2022/12/02 02:10:24;;;;;;;20.17;12.30;;;;;;;0.39;100.00;96610.41;5041909;28;20462;-74
2022/12/02 02:12:52;;;;;;;27.87;16.27;;;;;;;0.22;100.00;96586.44;5051478;28;20457;-74
2022/12/02 02:15:20;;;;;;;25.50;15.50;;;;;;;0.23;100.00;96580.97;5051330;28;20485;-74
2022/12/02 02:17:48;;;;;;;20.47;15.20;;;;;;;0.40;100.00;96616.41;5046527;28;20480;-74
2022/12/02 02:20:19;;;;;;;27.97;14.23;;;;;;;0.33;100.00;96608.84;5031319;28;20472;-73
2022/12/02 02:22:49;;;;;;;34.20;17.50;;;;;;;0.12;100.00;96583.78;5031416;28;20446;-74
2022/12/02 02:25:17;;;;;;;36.20;16.60;;;;;;;0.17;100.00;96584.59;5031333;28;20438;-74
2022/12/02 02:27:54;;;;;;;26.73;16.27;;;;;;;0.17;100.00;96589.00;5031375;28;20540;-74
2022/12/02 02:30:23;;;;;;;26.87;19.00;;;;;;;0.32;100.00;96612.47;5025275;28;20470;-74
2022/12/02 02:32:51;;;;;;;25.53;15.23;;;;;;;0.04;100.00;96561.66;5031265;28;20469;-74
2022/12/02 02:35:19;;;;;;;24.43;16.00;;;;;;;0.29;100.00;96613.00;5031204;28;20973;-74
2022/12/02 02:37:49;;;;;;;20.10;13.53;;;;;;;0.23;100.00;96606.97;5031137;28;20434;-73
2022/12/02 02:40:18;;;;;;;23.53;14.30;;;;;;;0.38;100.00;96615.88;5031258;28;20473;-74
2022/12/02 02:42:50;;;;;;;27.53;15.17;;;;;;;0.05;100.00;96572.84;5032741;28;20469;-73
2022/12/02 02:45:23;;;;;;;27.37;16.23;;;;;;;0.22;100.00;96581.22;5036239;28;20520;-73
2022/12/02 02:47:52;;;;;;;27.53;15.40;;;;;;;0.16;100.00;96583.03;5051117;28;20436;-74
2022/12/02 02:50:20;;;;;;;26.63;17.03;;;;;;;0.26;100.00;96592.66;5050722;28;20472;-74
2022/12/02 02:52:48;;;;;;;33.03;16.67;;;;;;;0.10;100.00;96571.03;5034195;28;20441;-74
2022/12/02 02:55:18;;;;;;;32.83;17.43;;;;;;;0.21;100.00;96584.88;5014318;28;21002;-74
2022/12/02 02:57:46;;;;;;;26.57;16.10;;;;;;;0.35;100.00;96611.97;5028806;28;20445;-74
2022/12/02 03:00:14;;;;;;;30.13;15.63;;;;;;;0.28;100.00;96594.00;5052165;28;20544;-74
2022/12/02 03:02:45;;;;;;;28.83;16.60;;;;;;;0.09;100.00;96586.88;5048711;28;20511;-74
2022/12/02 03:05:35;;;;;;;24.77;14.67;;;;;;;0.21;100.00;96593.44;5031082;28;20469;-74
2022/12/02 03:08:03;;;;;;;28.37;16.53;;;;;;;-0.09;100.00;96542.09;4993148;28;20957;-74
2022/12/02 03:10:30;;;;;;;26.60;15.97;;;;;;;0.16;100.00;96592.66;4997196;28;20464;-74
2022/12/02 03:12:57;;;;;;;27.10;16.03;;;;;;;0.20;100.00;96583.31;4973782;28;20448;-74
2022/12/02 03:15:26;;;;;;;31.73;15.43;;;;;;;0.12;100.00;96565.56;4973980;28;20460;-73
2022/12/02 03:17:53;;;;;;;29.17;17.63;;;;;;;0.12;100.00;96581.94;4996706;28;20962;-74
2022/12/02 03:20:22;;;;;;;36.00;17.70;;;;;;;0.18;100.00;96583.56;4996033;28;20550;-74
2022/12/02 03:22:49;;;;;;;26.90;16.23;;;;;;;-0.11;100.00;96546.78;4980466;28;20815;-74
2022/12/02 03:25:16;;;;;;;24.87;15.27;;;;;;;-0.09;100.00;96549.13;4973626;28;20443;-74
2022/12/02 03:27:42;;;;;;;30.03;16.43;;;;;;;0.20;100.00;96567.72;5009508;28;20463;-74
2022/12/02 03:30:10;;;;;;;32.80;17.90;;;;;;;0.06;100.00;96551.78;4988231;28;20567;-73
2022/12/02 03:32:43;;;;;;;31.50;17.47;;;;;;;0.16;100.00;96583.03;4992940;28;20439;-74
2022/12/02 03:35:13;;;;;;;29.67;16.83;;;;;;;0.05;100.00;96565.03;5007213;28;20483;-73
2022/12/02 03:37:40;;;;;;;27.97;16.83;;;;;;;0.01;100.00;96556.97;4995125;28;20998;-74
2022/12/02 03:40:08;;;;;;;37.50;17.43;;;;;;;-0.42;100.00;96493.88;4991880;28;20519;-74
2022/12/02 03:42:35;;;;;;;29.33;17.60;;;;;;;0.05;100.00;96570.25;5009099;28;20971;-74
2022/12/02 03:45:02;;;;;;;32.60;19.33;;;;;;;-0.23;100.00;96525.41;4995269;28;20557;-74
2022/12/02 03:47:29;;;;;;;30.60;18.90;;;;;;;0.09;100.00;96568.69;5010300;28;20460;-74
2022/12/02 03:49:57;;;;;;;34.30;19.10;;;;;;;0.08;100.00;96570.50;5029785;28;21045;-74
2022/12/02 03:52:24;;;;;;;35.90;20.50;;;;;;;0.11;100.00;96569.22;5029800;28;20434;-74
2022/12/02 03:54:51;;;;;;;37.07;18.07;;;;;;;-0.07;100.00;96534.84;5029695;28;20462;-74
2022/12/02 03:57:21;;;;;;;34.63;20.47;;;;;;;0.12;100.00;96565.56;5033736;28;20426;-73
2022/12/02 03:59:48;;;;;;;34.73;18.90;;;;;;;-0.09;100.00;96549.91;5033750;28;21025;-73
2022/12/02 04:02:14;;;;;;;33.97;20.40;;;;;;;-0.02;100.00;96560.84;5029759;28;20864;-73
2022/12/02 04:04:41;;;;;;;41.80;20.20;;;;;;;0.02;100.00;96561.13;5047697;28;20433;-73
2022/12/02 04:07:08;;;;;;;40.80;22.07;;;;;;;0.11;100.00;96562.19;5051115;28;20948;-73
2022/12/02 04:09:34;;;;;;;33.93;19.27;;;;;;;-0.22;100.00;96513.97;5044356;28;20466;-73
2022/12/02 04:12:01;;;;;;;46.40;21.77;;;;;;;0.06;100.00;96556.97;5030929;28;20521;-73
2022/12/02 04:14:27;;;;;;;37.73;21.00;;;;;;;0.02;100.00;96545.53;5029649;28;20449;-73
2022/12/02 04:16:54;;;;;;;37.30;20.63;;;;;;;-0.07;100.00;96557.44;5029545;28;20542;-73
2022/12/02 04:19:21;;;;;;;46.90;24.20;;;;;;;-0.09;100.00;96559.50;5009908;28;20534;-73
2022/12/02 04:21:47;;;;;;;37.13;20.77;;;;;;;-0.04;100.00;96559.53;5021991;28;20464;-73
2022/12/02 04:24:14;;;;;;;43.27;21.93;;;;;;;-0.33;100.00;96517.56;5030708;28;20524;-73
2022/12/02 04:26:41;;;;;;;42.77;22.00;;;;;;;-0.38;100.00;96499.34;5030727;28;20433;-73
2022/12/02 04:29:09;;;;;;;41.27;25.20;;;;;;;-0.03;100.00;96564.47;5026762;28;20437;-73
2022/12/02 04:31:36;;;;;;;43.50;21.47;;;;;;;-0.04;100.00;96559.53;5021484;28;20821;-73
2022/12/02 04:34:03;;;;;;;44.93;26.20;;;;;;;-0.23;100.00;96527.22;5029390;28;20438;-73
2022/12/02 04:36:29;;;;;;;40.80;22.90;;;;;;;-0.15;100.00;96527.50;5041503;28;20831;-73
2022/12/02 04:38:56;;;;;;;43.27;26.00;;;;;;;-0.08;100.00;96537.69;5032646;28;20528;-73
2022/12/02 04:41:23;;;;;;;49.50;24.30;;;;;;;-0.11;100.00;96541.59;5049214;28;20540;-73
2022/12/02 04:43:49;;;;;;;38.43;21.90;;;;;;;-0.02;100.00;96550.44;5030242;28;20533;-73
2022/12/02 04:46:16;;;;;;;41.97;22.27;;;;;;;-0.10;100.00;96537.94;5030682;28;20871;-73
2022/12/02 04:48:43;;;;;;;46.50;22.33;;;;;;;-0.21;100.00;96519.97;5030605;28;20453;-73
2022/12/02 04:51:10;;;;;;;40.73;21.90;;;;;;;-0.08;100.00;96537.69;5029665;28;20528;-72
2022/12/02 04:53:36;;;;;;;44.23;22.30;;;;;;;-0.14;100.00;96526.47;5031064;28;20945;-73
2022/12/02 04:56:03;;;;;;;38.90;22.03;;;;;;;0.00;100.00;96552.81;5032963;28;21059;-73
2022/12/02 04:58:30;;;;;;;40.27;22.63;;;;;;;-0.12;100.00;96531.44;5032776;28;20921;-73
2022/12/02 05:00:57;;;;;;;40.53;21.83;;;;;;;-0.75;100.00;96439.69;5032816;28;20833;-73
2022/12/02 05:03:23;;;;;;;44.07;25.00;;;;;;;-0.01;100.00;96536.41;5032811;28;20458;-73
2022/12/02 05:05:50;;;;;;;44.63;22.77;;;;;;;-0.25;100.00;96530.06;5032847;28;20438;-73
2022/12/02 05:08:17;;;;;;;42.37;24.73;;;;;;;-0.11;100.00;96548.59;5033022;28;20442;-73
2022/12/02 05:10:44;;;;;;;38.53;21.97;;;;;;;0.10;100.00;96552.84;5032871;28;20465;-73
2022/12/02 05:13:10;;;;;;;44.20;22.60;;;;;;;-0.04;100.00;96536.94;5025891;28;20888;-73
2022/12/02 05:15:37;;;;;;;45.43;23.73;;;;;;;-0.03;100.00;96538.47;5039730;28;20457;-73
2022/12/02 05:18:04;;;;;;;38.63;20.67;;;;;;;-0.04;100.00;96536.94;5052739;28;20433;-73
2022/12/02 05:20:31;;;;;;;44.77;22.10;;;;;;;-0.11;100.00;96554.56;5052466;28;20471;-73
2022/12/02 05:22:58;;;;;;;43.00;23.40;;;;;;;-0.17;100.00;96539.97;5045805;28;20426;-73
2022/12/02 05:25:24;;;;;;;46.33;25.43;;;;;;;-0.20;100.00;96537.09;5032300;28;20434;-73
2022/12/02 05:27:51;;;;;;;46.53;26.93;;;;;;;-0.22;100.00;96529.56;5033788;28;20453;-73
2022/12/02 05:30:18;;;;;;;50.23;25.87;;;;;;;-0.06;100.00;96549.38;5033671;28;20541;-73
2022/12/02 05:32:44;;;;;;;45.27;23.80;;;;;;;-0.47;100.00;96500.84;5024004;28;20440;-73
2022/12/02 05:35:11;;;;;;;39.20;23.33;;;;;;;-0.20;100.00;96522.31;5053252;28;20428;-73
2022/12/02 05:37:37;;;;;;;35.73;21.63;;;;;;;-0.26;100.00;96519.94;5043701;28;20442;-73
2022/12/02 05:40:05;;;;;;;38.43;21.90;;;;;;;-0.18;100.00;96541.00;5034803;28;20450;-73
2022/12/02 05:42:33;;;;;;;46.20;24.70;;;;;;;-0.18;100.00;96546.22;5052110;28;20512;-73
2022/12/02 05:45:12;;;;;;;43.67;22.30;;;;;;;-0.18;100.00;96541.00;5033073;28;20540;-73
2022/12/02 05:47:39;;;;;;;40.77;22.80;;;;;;;-0.36;100.00;96508.47;5032084;28;20458;-73
2022/12/02 05:50:10;;;;;;;46.03;25.47;;;;;;;-0.28;100.00;96517.56;5032170;28;20581;-73
2022/12/02 05:52:37;;;;;;;44.80;22.10;;;;;;;-0.05;100.00;96542.38;5031892;28;20430;-73
2022/12/02 05:55:13;;;;;;;41.00;23.20;;;;;;;-0.10;100.00;96548.34;5050236;28;20961;-73
2022/12/02 05:57:40;;;;;;;37.03;20.67;;;;;;;-0.09;100.00;96536.91;5039029;28;20445;-73
2022/12/02 06:00:19;;;;;;;41.93;23.23;;;;;;;-0.04;100.00;96547.31;5031713;28;20472;-73
2022/12/02 06:02:49;;;;;;;44.73;22.03;;;;;;;-0.32;100.00;96525.09;5031543;28;20441;-73
2022/12/02 06:05:23;;;;;;;38.83;21.47;;;;;;;-0.23;100.00;96530.59;5040236;28;20428;-73
2022/12/02 06:07:57;;;;;;;42.83;22.70;;;;;;;-0.36;100.00;96521.44;5043395;28;20837;-73
2022/12/02 06:10:31;;;;;;;44.30;22.57;;;;;;;-0.22;100.00;96539.97;5031705;28;20473;-73
2022/12/02 06:13:13;;;;;;;56.23;25.80;;;;;;;-0.29;100.00;96531.59;5015646;28;20445;-73
2022/12/02 06:15:39;;;;;;;37.40;21.83;;;;;;;-0.32;100.00;96532.88;5015357;28;20968;-73
2022/12/02 06:18:18;;;;;;;42.90;21.57;;;;;;;-0.45;100.00;96502.16;5031787;28;20426;-73
2022/12/02 06:20:47;;;;;;;41.23;23.33;;;;;;;-0.28;100.00;96530.56;5031599;28;20472;-73
2022/12/02 06:23:16;;;;;;;46.00;25.80;;;;;;;-0.30;100.00;96536.00;5048031;28;20476;-73
2022/12/02 06:25:48;;;;;;;41.03;24.07;;;;;;;-0.31;100.00;96544.84;5031688;28;20444;-73
2022/12/02 06:28:29;;;;;;;51.53;24.33;;;;;;;-0.27;100.00;96546.91;5031557;28;20681;-73
2022/12/02 06:31:08;;;;;;;48.03;24.17;;;;;;;-0.37;100.00;96534.69;5031177;28;20458;-73
2022/12/02 06:33:37;;;;;;;46.70;22.70;;;;;;;-0.54;100.00;96505.47;5031519;28;20533;-73
2022/12/02 06:36:10;;;;;;;41.50;21.07;;;;;;;-0.26;100.00;96553.72;5031505;28;20469;-73
2022/12/02 06:38:46;;;;;;;44.40;27.23;;;;;;;-0.27;100.00;96552.13;5044542;28;20445;-74
2022/12/02 06:41:21;;;;;;;40.80;22.70;;;;;;;-0.19;100.00;96538.66;5031216;28;20454;-74
2022/12/02 06:46:35;;;;;;;35.87;21.50;;;;;;;-0.55;100.00;96517.69;5033812;28;20450;-73
2022/12/02 06:49:36;;;;;;;46.90;23.73;;;;;;;-0.35;100.00;96545.59;5050904;28;20878;-74
2022/12/02 06:52:20;;;;;;;44.40;22.90;;;;;;;-0.32;100.00;96545.88;5015508;28;20446;-73
2022/12/02 06:54:46;;;;;;;45.30;22.93;;;;;;;-0.61;100.00;96513.50;5031044;28;20805;-74
2022/12/02 06:57:17;;;;;;;41.47;26.43;;;;;;;-0.37;100.00;96540.66;5047487;28;20462;-74
2022/12/02 06:59:48;;;;;;;38.20;22.53;;;;;;;-0.37;100.00;96550.25;5030775;28;20557;-73
2022/12/02 07:02:25;;;;;;;39.63;24.03;;;;;;;-0.35;100.00;96545.59;5042731;28;20489;-73
2022/12/02 07:04:52;;;;;;;39.50;23.63;;;;;;;-0.36;100.00;96544.03;5050605;28;20448;-73
2022/12/02 07:07:22;;;;;;;42.73;22.80;;;;;;;-0.28;100.00;96551.34;5050570;28;20460;-73
2022/12/02 07:10:01;;;;;;;43.13;23.33;;;;;;;-0.40;100.00;96525.59;5044817;28;20469;-73
2022/12/02 07:12:44;;;;;;;46.17;24.50;;;;;;;-0.46;100.00;96526.56;5031996;28;20922;-74
2022/12/02 07:15:19;;;;;;;45.43;24.67;;;;;;;-0.34;100.00;96547.94;5030307;28;20452;-73
2022/12/02 07:17:46;;;;;;;44.23;24.87;;;;;;;-0.44;100.00;96531.50;5031644;28;20460;-73
2022/12/02 07:20:30;;;;;;;47.13;25.90;;;;;;;-0.37;100.00;96551.03;5030309;28;20449;-74
2022/12/02 07:23:04;;;;;;;42.33;24.70;;;;;;;-0.34;100.00;96544.56;5018329;28;20535;-74
2022/12/02 07:25:40;;;;;;;37.93;20.97;;;;;;;-0.33;100.00;96543.53;5032811;28;20428;-74
2022/12/02 07:28:40;;;;;;;43.77;22.70;;;;;;;-0.37;100.00;96542.47;5050321;28;20515;-74
2022/12/02 07:31:30;;;;;;;49.17;23.60;;;;;;;-0.40;100.00;96540.34;5003491;28;20471;-74
2022/12/02 07:33:57;;;;;;;43.50;23.07;;;;;;;-0.40;100.00;96545.53;5025438;28;20470;-74
2022/12/02 07:36:23;;;;;;;41.90;23.67;;;;;;;-0.42;100.00;96545.03;5021799;28;20470;-74
2022/12/02 07:38:50;;;;;;;42.87;24.93;;;;;;;-0.55;100.00;96525.47;5030178;28;20817;-74
2022/12/02 07:41:36;;;;;;;50.80;26.53;;;;;;;-0.62;100.00;96514.53;5030278;28;20445;-74
2022/12/02 07:44:04;;;;;;;45.00;22.53;;;;;;;-0.33;100.00;96546.91;5051411;28;20467;-74
2022/12/02 07:46:31;;;;;;;47.93;25.70;;;;;;;-0.49;100.00;96521.09;5049018;28;20434;-74
2022/12/02 07:48:58;;;;;;;43.07;24.00;;;;;;;-0.41;100.00;96536.97;5029924;28;20429;-74
2022/12/02 07:51:24;;;;;;;47.10;24.00;;;;;;;-0.52;100.00;96530.19;5032216;28;20513;-74
2022/12/02 07:53:52;;;;;;;43.63;22.30;;;;;;;-0.41;100.00;96559.56;5042309;28;20516;-74
2022/12/02 07:56:18;;;;;;;44.93;23.17;;;;;;;-0.69;100.00;96516.53;5011245;28;20559;-74
2022/12/02 07:58:45;;;;;;;42.77;24.87;;;;;;;-0.44;100.00;96554.88;5031382;28;20429;-74
2022/12/02 08:01:31;;;;;;;46.03;26.20;;;;;;;-1.06;100.00;96457.66;5029657;28;20698;-73
2022/12/02 08:03:58;;;;;;;45.93;24.23;;;;;;;-0.45;100.00;96550.72;5039166;28;20422;-74
2022/12/02 08:06:25;;;;;;;43.60;26.57;;;;;;;-0.66;100.00;96511.66;5029871;28;21187;-75
2022/12/02 08:08:52;;;;;;;49.30;24.00;;;;;;;-0.47;100.00;96538.00;5030012;28;20437;-74
2022/12/02 08:11:18;;;;;;;50.23;25.87;;;;;;;-0.89;100.00;96480.88;5029867;28;20430;-74
2022/12/02 08:13:45;;;;;;;48.33;27.10;;;;;;;-0.35;100.00;96540.41;5040817;28;20433;-74
2022/12/02 08:16:12;;;;;;;46.27;25.23;;;;;;;-0.28;100.00;96555.75;5015831;28;20476;-74
2022/12/02 08:18:38;;;;;;;49.00;28.10;;;;;;;-0.77;100.00;96491.06;5013498;28;20484;-74
2022/12/02 08:21:05;;;;;;;45.83;26.87;;;;;;;-0.55;100.00;96519.50;5029702;28;20468;-74
2022/12/02 08:23:35;;;;;;;50.10;23.70;;;;;;;-0.52;100.00;96542.38;5031022;28;20430;-74
2022/12/02 08:26:02;;;;;;;49.27;23.13;;;;;;;-0.34;100.00;96553.13;5036375;28;20440;-74
2022/12/02 08:28:29;;;;;;;41.57;25.33;;;;;;;-0.49;100.00;96529.66;5051840;28;20510;-74
2022/12/02 08:30:55;;;;;;;46.40;24.30;;;;;;;-0.48;100.00;96536.44;5042232;28;20461;-74
2022/12/02 08:33:22;;;;;;;49.80;26.33;;;;;;;-0.53;100.00;96528.63;5018263;28;20445;-74
2022/12/02 08:35:49;;;;;;;44.33;23.20;;;;;;;-0.70;100.00;96512.38;5035704;28;20460;-74
2022/12/02 08:38:15;;;;;;;48.70;25.73;;;;;;;-0.56;100.00;96539.47;5035089;28;20545;-74
2022/12/02 08:40:42;;;;;;;49.60;24.30;;;;;;;-0.45;100.00;96546.31;5022137;28;20544;-74
2022/12/02 08:43:10;;;;;;;49.00;26.67;;;;;;;-0.37;100.00;96553.66;5017308;28;20441;-74
2022/12/02 08:45:36;;;;;;;39.47;23.23;;;;;;;-0.49;100.00;96526.28;5035005;28;20952;-74
2022/12/02 08:48:03;;;;;;;45.97;25.53;;;;;;;-0.38;100.00;96541.69;5048160;28;20428;-74
2022/12/02 08:50:30;;;;;;;49.60;25.27;;;;;;;-0.41;100.00;96538.78;5035038;28;20492;-75
2022/12/02 08:52:56;;;;;;;49.40;25.03;;;;;;;-0.40;100.00;96535.97;5033460;28;20445;-74
2022/12/02 08:55:25;;;;;;;46.73;26.13;;;;;;;-0.60;100.00;96536.59;5017379;28;20812;-75
2022/12/02 08:57:52;;;;;;;46.63;27.70;;;;;;;-0.46;100.00;96555.13;5034197;28;20472;-74
2022/12/02 09:00:22;;;;;;;47.10;23.90;;;;;;;-0.40;100.00;96554.16;5034439;28;21043;-74
2022/12/02 09:02:49;;;;;;;51.13;28.50;;;;;;;-0.74;100.00;96521.72;5033216;28;20521;-74
2022/12/02 09:05:16;;;;;;;45.40;23.07;;;;;;;-0.58;100.00;96545.97;5035022;28;20440;-74
2022/12/02 09:07:42;;;;;;;47.70;26.17;;;;;;;-0.45;100.00;96550.72;5032723;28;20444;-74
2022/12/02 09:10:10;;;;;;;47.63;25.77;;;;;;;-0.45;100.00;96551.50;5032786;28;20829;-74
2022/12/02 09:12:37;;;;;;;43.77;24.27;;;;;;;-0.49;100.00;96554.84;5047352;28;20468;-74
2022/12/02 09:15:05;;;;;;;49.90;28.70;;;;;;;-0.69;100.00;96527.72;5034608;28;20432;-74
2022/12/02 09:17:31;;;;;;;52.97;24.90;;;;;;;-0.78;100.00;96505.09;5032739;28;20460;-74
2022/12/02 09:19:58;;;;;;;43.03;23.70;;;;;;;-0.67;100.00;96549.03;5025118;28;20554;-74
2022/12/02 09:22:25;;;;;;;50.00;25.00;;;;;;;-0.64;100.00;96551.13;5031434;28;20449;-74
2022/12/02 09:24:51;;;;;;;50.50;26.10;;;;;;;-0.61;100.00;96558.41;5031272;28;20437;-74
2022/12/02 09:27:18;;;;;;;48.30;24.40;;;;;;;-0.61;100.00;96550.63;5036232;28;20764;-74
2022/12/02 09:29:45;;;;;;;37.33;23.60;;;;;;;-0.97;100.00;96489.09;5049325;28;20467;-74
2022/12/02 09:32:12;;;;;;;48.93;25.20;;;;;;;-0.87;100.00;96502.16;5031402;28;20453;-74
2022/12/02 09:34:38;;;;;;;45.23;23.03;;;;;;;-0.70;100.00;96525.38;5031661;28;20453;-74
2022/12/02 09:37:05;;;;;;;44.93;25.20;;;;;;;-0.51;100.00;96552.50;5031245;28;21334;-74
2022/12/02 09:39:32;;;;;;;48.27;24.63;;;;;;;-0.70;100.00;96549.50;5032344;28;20947;-74
2022/12/02 09:42:10;;;;;;;54.40;26.17;;;;;;;-0.83;100.00;96529.16;5051443;28;20425;-74
2022/12/02 09:44:37;;;;;;;43.10;24.53;;;;;;;-1.10;100.00;96489.50;5052929;28;20528;-74
2022/12/02 09:47:05;;;;;;;48.07;26.20;;;;;;;-0.99;100.00;96499.72;5031643;28;21054;-74
2022/12/02 09:49:32;;;;;;;47.00;24.33;;;;;;;-1.04;100.00;96480.75;5031055;28;20458;-74
2022/12/02 09:52:02;;;;;;;48.33;26.50;;;;;;;-0.67;100.00;96538.66;5031030;28;20540;-74
2022/12/02 09:54:29;;;;;;;54.50;25.70;;;;;;;-0.85;100.00;96515.66;5044718;28;21031;-74
2022/12/02 09:56:57;;;;;;;52.63;26.77;;;;;;;-0.67;100.00;96536.06;5018252;28;20992;-74
2022/12/02 09:59:23;;;;;;;55.83;26.60;;;;;;;-0.71;100.00;96527.19;5031118;28;20458;-74
2022/12/02 10:01:50;;;;;;;47.30;25.07;;;;;;;-0.92;100.00;96509.91;5031082;28;20930;-74
2022/12/02 10:04:20;;;;;;;54.73;28.83;;;;;;;-0.76;100.00;96534.94;5030807;28;20843;-74
2022/12/02 10:06:47;;;;;;;53.40;29.53;;;;;;;-0.70;100.00;96536.53;5030803;28;20438;-74
2022/12/02 10:09:30;;;;;;;50.30;27.00;;;;;;;-0.73;100.00;96524.06;5030916;28;20454;-74
2022/12/02 10:11:56;;;;;;;40.97;21.67;;;;;;;-0.77;100.00;96523.00;5041145;28;20449;-75
2022/12/02 10:14:23;;;;;;;45.53;24.33;;;;;;;-0.75;100.00;96527.94;5050660;28;21138;-74
2022/12/02 10:16:51;;;;;;;53.97;26.60;;;;;;;-0.71;100.00;96529.78;5051858;28;20552;-74
2022/12/02 10:19:19;;;;;;;49.80;27.70;;;;;;;-1.09;100.00;96472.91;5051872;28;20548;-74
2022/12/02 10:21:46;;;;;;;43.43;27.00;;;;;;;-0.76;100.00;96511.59;5001236;28;1117735;-75
2022/12/02 10:24:35;;;;;;;51.10;27.53;;;;;;;-0.90;100.00;96492.28;5031575;28;20609;-75
2022/12/02 10:27:02;;;;;;;58.60;28.07;;;;;;;-0.79;100.00;96514.69;5031692;28;20458;-75
2022/12/02 10:29:30;;;;;;;50.77;27.63;;;;;;;-0.70;100.00;96523.56;5041033;28;20514;-74
2022/12/02 10:32:00;;;;;;;52.23;23.97;;;;;;;-0.83;100.00;96492.84;5050020;28;20456;-74
2022/12/02 10:34:28;;;;;;;48.63;25.90;;;;;;;-0.68;100.00;96500.72;5032662;28;20437;-74
2022/12/02 10:36:55;;;;;;;48.43;25.10;;;;;;;-0.75;100.00;96510.56;5031179;28;20454;-74
2022/12/02 10:39:28;;;;;;;55.37;28.63;;;;;;;-0.83;100.00;96498.03;5032686;28;20804;-74
2022/12/02 10:42:03;;;;;;;47.37;27.00;;;;;;;-0.76;100.00;96513.41;5032808;28;20541;-75
2022/12/02 10:44:31;;;;;;;51.83;26.63;;;;;;;-0.77;100.00;96491.06;5031252;28;20536;-74
2022/12/02 10:47:13;;;;;;;48.47;24.73;;;;;;;-0.85;100.00;96501.91;5032699;28;20485;-74
2022/12/02 10:49:50;;;;;;;44.70;23.47;;;;;;;-0.85;100.00;96494.91;5032904;28;20454;-74
2022/12/02 10:52:18;;;;;;;51.40;28.10;;;;;;;-1.15;100.00;96466.91;5039596;28;20418;-74
2022/12/02 10:54:49;;;;;;;41.80;26.20;;;;;;;-0.89;100.00;96488.66;5031171;28;20441;-74
2022/12/02 10:57:22;;;;;;;43.27;25.63;;;;;;;-0.80;100.00;96497.53;5030991;28;20465;-74
2022/12/02 10:59:50;;;;;;;40.30;23.27;;;;;;;-0.87;100.00;96488.41;5031087;28;20476;-74
2022/12/02 11:02:20;;;;;;;52.50;26.40;;;;;;;-1.08;100.00;96453.72;5032327;28;20431;-75
2022/12/02 11:04:48;;;;;;;42.33;22.97;;;;;;;-0.90;100.00;96487.09;5011152;28;21021;-75
2022/12/02 11:07:16;;;;;;;49.30;27.73;;;;;;;-0.92;100.00;96487.34;5038829;28;20946;-75
2022/12/02 11:09:46;;;;;;;54.17;26.50;;;;;;;-1.07;100.00;96465.66;5031009;28;20572;-74
2022/12/02 11:12:29;;;;;;;46.70;25.97;;;;;;;-0.86;100.00;96482.19;5031540;28;20441;-75
2022/12/02 11:14:56;;;;;;;48.47;27.20;;;;;;;-1.03;100.00;96466.75;5031441;28;20492;-75
2022/12/02 11:17:49;;;;;;;45.63;24.33;;;;;;;-0.90;100.00;96481.91;5016477;28;20454;-75
2022/12/02 11:20:40;;;;;;;41.87;24.60;;;;;;;-0.97;100.00;96478.72;5051349;28;21063;-74
2022/12/02 11:23:26;;;;;;;41.47;23.13;;;;;;;-1.00;100.00;96469.63;5026378;28;20445;-75
2022/12/02 11:26:08;;;;;;;42.63;22.70;;;;;;;-1.22;100.00;96443.78;5032030;28;20938;-75
2022/12/02 11:28:42;;;;;;;48.33;26.10;;;;;;;-1.24;100.00;96439.88;5015503;28;20443;-75